Terminal Aerodrome Forecast
Issued by NWS Tulsa, OK

Home | Current Version | Previous Version | Text Only | Print | Product List | Glossary On
Versions: 1 2 3 4 5 6 7 8 9 10 11 12 13 14 15 16
000
FTUS44 KTSA 311737
TAFTUL
TAF
KTUL 311737Z 3118/0118 13005KT P6SM SCT015 SCT025 OVC110
      TEMPO 3118/3120 BKN015
     FM312000 16006KT P6SM VCTS BKN040CB
     FM010200 VRB05KT P6SM BKN050 BKN100
      TEMPO 0112/0116 BKN015=

USA.gov is the U.S. government's official web portal to all federal, state and local government web resources and services.